sensor_id;sensor_type;location;lat;lon;timestamp;P1;durP1;ratioP1;P2;durP2;ratioP2
29958;SDS011;16815;51.100;6.516;2023-04-01T00:01:26;2.43;;;1.00;;
29958;SDS011;16815;51.100;6.516;2023-04-01T00:03:53;2.10;;;1.10;;
29958;SDS011;16815;51.100;6.516;2023-04-01T00:06:19;1.90;;;1.20;;
29958;SDS011;16815;51.100;6.516;2023-04-01T00:08:45;1.20;;;1.10;;
29958;SDS011;16815;51.100;6.516;2023-04-01T00:11:11;1.53;;;0.97;;
29958;SDS011;16815;51.100;6.516;2023-04-01T00:13:37;2.60;;;1.30;;
29958;SDS011;16815;51.100;6.516;2023-04-01T00:16:03;2.03;;;1.00;;
29958;SDS011;16815;51.100;6.516;2023-04-01T00:18:29;2.10;;;1.20;;
29958;SDS011;16815;51.100;6.516;2023-04-01T00:20:55;3.97;;;1.10;;
29958;SDS011;16815;51.100;6.516;2023-04-01T00:23:21;3.40;;;1.47;;
29958;SDS011;16815;51.100;6.516;2023-04-01T00:25:47;2.53;;;1.03;;
29958;SDS011;16815;51.100;6.516;2023-04-01T00:28:15;2.50;;;1.27;;
29958;SDS011;16815;51.100;6.516;2023-04-01T00:30:42;2.77;;;1.37;;
29958;SDS011;16815;51.100;6.516;2023-04-01T00:33:07;2.27;;;1.30;;
29958;SDS011;16815;51.100;6.516;2023-04-01T00:35:33;3.03;;;1.17;;
29958;SDS011;16815;51.100;6.516;2023-04-01T00:38:00;2.37;;;1.40;;
29958;SDS011;16815;51.100;6.516;2023-04-01T00:40:28;4.47;;;1.20;;
29958;SDS011;16815;51.100;6.516;2023-04-01T00:42:54;3.83;;;1.47;;
29958;SDS011;16815;51.100;6.516;2023-04-01T00:45:24;3.77;;;1.20;;
29958;SDS011;16815;51.100;6.516;2023-04-01T00:47:51;2.87;;;1.40;;
29958;SDS011;16815;51.100;6.516;2023-04-01T00:50:18;2.50;;;1.40;;
29958;SDS011;16815;51.100;6.516;2023-04-01T00:52:44;1.83;;;1.20;;
29958;SDS011;16815;51.100;6.516;2023-04-01T00:55:11;2.77;;;1.23;;
29958;SDS011;16815;51.100;6.516;2023-04-01T00:57:38;2.80;;;1.10;;
29958;SDS011;16815;51.100;6.516;2023-04-01T01:00:06;3.60;;;1.60;;
29958;SDS011;16815;51.100;6.516;2023-04-01T01:02:34;2.20;;;1.00;;
29958;SDS011;16815;51.100;6.516;2023-04-01T01:05:00;1.70;;;1.10;;
29958;SDS011;16815;51.100;6.516;2023-04-01T01:07:29;1.40;;;1.20;;
29958;SDS011;16815;51.100;6.516;2023-04-01T01:12:34;2.33;;;1.20;;
29958;SDS011;16815;51.100;6.516;2023-04-01T01:15:06;2.53;;;0.93;;
29958;SDS011;16815;51.100;6.516;2023-04-01T01:17:39;3.73;;;1.17;;
29958;SDS011;16815;51.100;6.516;2023-04-01T01:20:20;2.37;;;1.13;;
29958;SDS011;16815;51.100;6.516;2023-04-01T01:27:42;1.33;;;1.00;;
29958;SDS011;16815;51.100;6.516;2023-04-01T01:32:58;2.43;;;1.10;;
29958;SDS011;16815;51.100;6.516;2023-04-01T01:35:31;2.67;;;1.20;;
29958;SDS011;16815;51.100;6.516;2023-04-01T01:37:59;1.23;;;1.00;;
29958;SDS011;16815;51.100;6.516;2023-04-01T01:40:26;1.87;;;1.30;;
29958;SDS011;16815;51.100;6.516;2023-04-01T01:42:54;3.47;;;1.37;;
29958;SDS011;16815;51.100;6.516;2023-04-01T01:45:21;2.43;;;0.90;;
29958;SDS011;16815;51.100;6.516;2023-04-01T01:47:49;1.00;;;0.90;;
29958;SDS011;16815;51.100;6.516;2023-04-01T01:50:16;2.00;;;1.17;;
29958;SDS011;16815;51.100;6.516;2023-04-01T01:52:42;2.30;;;1.10;;
29958;SDS011;16815;51.100;6.516;2023-04-01T01:57:50;4.17;;;1.60;;
29958;SDS011;16815;51.100;6.516;2023-04-01T02:00:16;1.47;;;0.93;;
29958;SDS011;16815;51.100;6.516;2023-04-01T02:02:42;1.97;;;1.17;;
29958;SDS011;16815;51.100;6.516;2023-04-01T02:05:10;2.90;;;1.40;;
29958;SDS011;16815;51.100;6.516;2023-04-01T02:07:37;3.53;;;1.13;;
29958;SDS011;16815;51.100;6.516;2023-04-01T02:10:05;3.47;;;1.13;;
29958;SDS011;16815;51.100;6.516;2023-04-01T02:12:31;1.87;;;1.30;;
29958;SDS011;16815;51.100;6.516;2023-04-01T02:15:01;2.37;;;1.20;;
29958;SDS011;16815;51.100;6.516;2023-04-01T02:17:30;3.00;;;1.07;;
29958;SDS011;16815;51.100;6.516;2023-04-01T02:19:57;1.97;;;1.00;;
29958;SDS011;16815;51.100;6.516;2023-04-01T02:22:28;2.30;;;1.30;;
29958;SDS011;16815;51.100;6.516;2023-04-01T02:24:55;4.70;;;1.20;;
29958;SDS011;16815;51.100;6.516;2023-04-01T02:27:22;0.77;;;0.77;;
29958;SDS011;16815;51.100;6.516;2023-04-01T02:29:49;1.17;;;0.90;;
29958;SDS011;16815;51.100;6.516;2023-04-01T02:32:15;2.90;;;0.93;;
29958;SDS011;16815;51.100;6.516;2023-04-01T02:34:42;1.20;;;0.97;;
29958;SDS011;16815;51.100;6.516;2023-04-01T02:37:08;2.50;;;1.10;;
29958;SDS011;16815;51.100;6.516;2023-04-01T02:39:34;1.83;;;1.00;;
29958;SDS011;16815;51.100;6.516;2023-04-01T02:42:00;0.90;;;0.90;;
29958;SDS011;16815;51.100;6.516;2023-04-01T02:44:26;1.43;;;1.00;;
29958;SDS011;16815;51.100;6.516;2023-04-01T02:46:52;2.57;;;0.90;;
29958;SDS011;16815;51.100;6.516;2023-04-01T02:49:18;1.67;;;1.00;;
29958;SDS011;16815;51.100;6.516;2023-04-01T02:51:44;1.00;;;1.00;;
29958;SDS011;16815;51.100;6.516;2023-04-01T02:54:10;0.97;;;0.80;;
29958;SDS011;16815;51.100;6.516;2023-04-01T02:56:36;0.80;;;0.80;;
29958;SDS011;16815;51.100;6.516;2023-04-01T02:59:02;1.87;;;0.80;;
29958;SDS011;16815;51.100;6.516;2023-04-01T03:01:28;2.20;;;0.80;;
29958;SDS011;16815;51.100;6.516;2023-04-01T03:03:54;1.73;;;0.80;;
29958;SDS011;16815;51.100;6.516;2023-04-01T03:06:20;1.33;;;0.87;;
29958;SDS011;16815;51.100;6.516;2023-04-01T03:08:46;1.13;;;0.87;;
29958;SDS011;16815;51.100;6.516;2023-04-01T03:11:12;1.07;;;0.80;;
29958;SDS011;16815;51.100;6.516;2023-04-01T03:13:38;1.57;;;1.00;;
29958;SDS011;16815;51.100;6.516;2023-04-01T03:16:04;0.83;;;0.80;;
29958;SDS011;16815;51.100;6.516;2023-04-01T03:18:30;0.77;;;0.77;;
29958;SDS011;16815;51.100;6.516;2023-04-01T03:20:56;1.60;;;0.97;;
29958;SDS011;16815;51.100;6.516;2023-04-01T03:23:22;2.00;;;1.00;;
29958;SDS011;16815;51.100;6.516;2023-04-01T03:25:49;0.80;;;0.73;;
29958;SDS011;16815;51.100;6.516;2023-04-01T03:28:15;1.40;;;0.97;;
29958;SDS011;16815;51.100;6.516;2023-04-01T03:30:41;1.10;;;0.80;;
29958;SDS011;16815;51.100;6.516;2023-04-01T03:33:07;1.00;;;1.00;;
29958;SDS011;16815;51.100;6.516;2023-04-01T03:35:33;1.83;;;1.13;;
29958;SDS011;16815;51.100;6.516;2023-04-01T03:38:01;0.70;;;0.70;;
29958;SDS011;16815;51.100;6.516;2023-04-01T03:40:26;1.70;;;0.93;;
29958;SDS011;16815;51.100;6.516;2023-04-01T03:42:52;1.53;;;0.90;;
29958;SDS011;16815;51.100;6.516;2023-04-01T03:45:19;1.13;;;0.90;;
29958;SDS011;16815;51.100;6.516;2023-04-01T03:47:45;0.90;;;0.90;;
29958;SDS011;16815;51.100;6.516;2023-04-01T03:50:11;0.90;;;0.80;;
29958;SDS011;16815;51.100;6.516;2023-04-01T03:52:37;2.13;;;0.93;;
29958;SDS011;16815;51.100;6.516;2023-04-01T03:55:03;0.97;;;0.90;;
29958;SDS011;16815;51.100;6.516;2023-04-01T03:57:30;0.97;;;0.90;;
29958;SDS011;16815;51.100;6.516;2023-04-01T03:59:56;0.80;;;0.80;;
29958;SDS011;16815;51.100;6.516;2023-04-01T04:02:22;1.10;;;1.00;;
29958;SDS011;16815;51.100;6.516;2023-04-01T04:04:48;1.60;;;1.23;;
29958;SDS011;16815;51.100;6.516;2023-04-01T04:07:14;1.83;;;0.80;;
29958;SDS011;16815;51.100;6.516;2023-04-01T04:09:40;3.17;;;1.47;;
29958;SDS011;16815;51.100;6.516;2023-04-01T04:12:06;1.50;;;1.07;;
29958;SDS011;16815;51.100;6.516;2023-04-01T04:14:32;2.57;;;1.00;;
29958;SDS011;16815;51.100;6.516;2023-04-01T04:16:58;0.87;;;0.87;;
29958;SDS011;16815;51.100;6.516;2023-04-01T04:19:24;1.13;;;1.03;;
29958;SDS011;16815;51.100;6.516;2023-04-01T04:21:50;1.33;;;0.90;;
29958;SDS011;16815;51.100;6.516;2023-04-01T04:24:16;0.80;;;0.80;;
29958;SDS011;16815;51.100;6.516;2023-04-01T04:26:42;0.90;;;0.90;;
29958;SDS011;16815;51.100;6.516;2023-04-01T04:29:08;5.77;;;1.00;;
29958;SDS011;16815;51.100;6.516;2023-04-01T04:31:33;2.50;;;0.83;;
29958;SDS011;16815;51.100;6.516;2023-04-01T04:33:59;0.93;;;0.93;;
29958;SDS011;16815;51.100;6.516;2023-04-01T04:36:26;1.93;;;1.10;;
29958;SDS011;16815;51.100;6.516;2023-04-01T04:38:52;1.70;;;1.10;;
29958;SDS011;16815;51.100;6.516;2023-04-01T04:41:19;1.10;;;1.00;;
29958;SDS011;16815;51.100;6.516;2023-04-01T04:43:51;2.23;;;1.10;;
29958;SDS011;16815;51.100;6.516;2023-04-01T04:46:17;1.33;;;1.10;;
29958;SDS011;16815;51.100;6.516;2023-04-01T04:48:44;2.33;;;1.23;;
29958;SDS011;16815;51.100;6.516;2023-04-01T04:51:12;1.00;;;1.00;;
29958;SDS011;16815;51.100;6.516;2023-04-01T04:53:39;1.90;;;1.10;;
29958;SDS011;16815;51.100;6.516;2023-04-01T04:56:05;0.93;;;0.90;;
29958;SDS011;16815;51.100;6.516;2023-04-01T04:58:31;1.40;;;1.30;;
29958;SDS011;16815;51.100;6.516;2023-04-01T05:00:58;1.33;;;1.10;;
29958;SDS011;16815;51.100;6.516;2023-04-01T05:03:24;1.20;;;1.10;;
29958;SDS011;16815;51.100;6.516;2023-04-01T05:05:51;1.80;;;1.40;;
29958;SDS011;16815;51.100;6.516;2023-04-01T05:08:17;1.00;;;1.00;;
29958;SDS011;16815;51.100;6.516;2023-04-01T05:10:43;1.30;;;1.20;;
29958;SDS011;16815;51.100;6.516;2023-04-01T05:13:09;1.40;;;1.03;;
29958;SDS011;16815;51.100;6.516;2023-04-01T05:15:35;1.00;;;1.00;;
29958;SDS011;16815;51.100;6.516;2023-04-01T05:18:02;1.80;;;1.20;;
29958;SDS011;16815;51.100;6.516;2023-04-01T05:20:28;1.13;;;1.13;;
29958;SDS011;16815;51.100;6.516;2023-04-01T05:22:57;1.27;;;1.10;;
29958;SDS011;16815;51.100;6.516;2023-04-01T05:25:24;1.20;;;1.10;;
29958;SDS011;16815;51.100;6.516;2023-04-01T05:27:50;1.33;;;1.20;;
29958;SDS011;16815;51.100;6.516;2023-04-01T05:30:16;3.57;;;1.23;;
29958;SDS011;16815;51.100;6.516;2023-04-01T05:32:42;1.47;;;1.23;;
29958;SDS011;16815;51.100;6.516;2023-04-01T05:35:08;1.23;;;1.13;;
29958;SDS011;16815;51.100;6.516;2023-04-01T05:37:34;1.40;;;1.30;;
29958;SDS011;16815;51.100;6.516;2023-04-01T05:40:01;1.50;;;1.40;;
29958;SDS011;16815;51.100;6.516;2023-04-01T05:42:27;2.33;;;1.63;;
29958;SDS011;16815;51.100;6.516;2023-04-01T05:44:53;1.30;;;1.10;;
29958;SDS011;16815;51.100;6.516;2023-04-01T05:47:20;1.50;;;1.40;;
29958;SDS011;16815;51.100;6.516;2023-04-01T05:49:46;1.57;;;1.20;;
29958;SDS011;16815;51.100;6.516;2023-04-01T05:52:11;2.87;;;1.60;;
29958;SDS011;16815;51.100;6.516;2023-04-01T05:54:37;2.00;;;1.20;;
29958;SDS011;16815;51.100;6.516;2023-04-01T05:57:03;1.70;;;1.20;;
29958;SDS011;16815;51.100;6.516;2023-04-01T05:59:29;1.67;;;1.30;;
29958;SDS011;16815;51.100;6.516;2023-04-01T06:01:59;1.67;;;1.40;;
29958;SDS011;16815;51.100;6.516;2023-04-01T06:04:26;1.93;;;1.40;;
29958;SDS011;16815;51.100;6.516;2023-04-01T06:06:55;2.13;;;1.47;;
29958;SDS011;16815;51.100;6.516;2023-04-01T06:09:26;1.93;;;1.50;;
29958;SDS011;16815;51.100;6.516;2023-04-01T06:17:12;1.83;;;1.63;;
29958;SDS011;16815;51.100;6.516;2023-04-01T06:19:54;2.00;;;1.30;;
29958;SDS011;16815;51.100;6.516;2023-04-01T06:22:25;1.40;;;1.30;;
29958;SDS011;16815;51.100;6.516;2023-04-01T06:30:32;1.57;;;1.33;;
29958;SDS011;16815;51.100;6.516;2023-04-01T06:41:16;1.73;;;1.63;;
29958;SDS011;16815;51.100;6.516;2023-04-01T06:46:41;1.90;;;1.50;;
29958;SDS011;16815;51.100;6.516;2023-04-01T06:51:59;1.70;;;1.60;;
29958;SDS011;16815;51.100;6.516;2023-04-01T06:54:37;2.63;;;1.90;;
29958;SDS011;16815;51.100;6.516;2023-04-01T06:57:19;2.13;;;1.93;;
29958;SDS011;16815;51.100;6.516;2023-04-01T06:59:46;1.70;;;1.60;;
29958;SDS011;16815;51.100;6.516;2023-04-01T07:02:19;2.73;;;2.13;;
29958;SDS011;16815;51.100;6.516;2023-04-01T07:04:48;2.73;;;2.37;;
29958;SDS011;16815;51.100;6.516;2023-04-01T07:10:02;2.27;;;2.07;;
29958;SDS011;16815;51.100;6.516;2023-04-01T07:14:55;2.60;;;2.40;;
29958;SDS011;16815;51.100;6.516;2023-04-01T07:17:23;3.13;;;2.43;;
29958;SDS011;16815;51.100;6.516;2023-04-01T07:20:05;4.27;;;2.83;;
29958;SDS011;16815;51.100;6.516;2023-04-01T07:22:35;4.50;;;2.70;;
29958;SDS011;16815;51.100;6.516;2023-04-01T07:27:50;3.07;;;2.60;;
29958;SDS011;16815;51.100;6.516;2023-04-01T07:30:21;3.00;;;2.77;;
29958;SDS011;16815;51.100;6.516;2023-04-01T07:32:50;4.17;;;2.60;;
29958;SDS011;16815;51.100;6.516;2023-04-01T07:37:51;3.73;;;3.10;;
29958;SDS011;16815;51.100;6.516;2023-04-01T07:40:24;3.73;;;2.63;;
29958;SDS011;16815;51.100;6.516;2023-04-01T07:50:37;2.83;;;2.60;;
29958;SDS011;16815;51.100;6.516;2023-04-01T07:56:00;2.97;;;2.77;;
29958;SDS011;16815;51.100;6.516;2023-04-01T08:01:04;3.33;;;2.63;;
29958;SDS011;16815;51.100;6.516;2023-04-01T08:03:41;2.77;;;2.40;;
29958;SDS011;16815;51.100;6.516;2023-04-01T08:06:14;2.70;;;2.30;;
29958;SDS011;16815;51.100;6.516;2023-04-01T08:08:44;2.57;;;2.37;;
29958;SDS011;16815;51.100;6.516;2023-04-01T08:11:30;2.13;;;2.03;;
29958;SDS011;16815;51.100;6.516;2023-04-01T08:16:42;2.33;;;2.10;;
29958;SDS011;16815;51.100;6.516;2023-04-01T08:21:47;1.70;;;1.60;;
29958;SDS011;16815;51.100;6.516;2023-04-01T08:24:22;2.00;;;1.80;;
29958;SDS011;16815;51.100;6.516;2023-04-01T08:26:53;2.00;;;1.77;;
29958;SDS011;16815;51.100;6.516;2023-04-01T08:29:22;2.63;;;1.80;;
29958;SDS011;16815;51.100;6.516;2023-04-01T08:34:45;2.00;;;1.90;;
29958;SDS011;16815;51.100;6.516;2023-04-01T08:37:20;1.63;;;1.53;;
29958;SDS011;16815;51.100;6.516;2023-04-01T08:39:48;1.63;;;1.53;;
29958;SDS011;16815;51.100;6.516;2023-04-01T08:42:23;2.03;;;1.57;;
29958;SDS011;16815;51.100;6.516;2023-04-01T08:45:15;1.90;;;1.60;;
29958;SDS011;16815;51.100;6.516;2023-04-01T08:47:46;2.10;;;1.80;;
29958;SDS011;16815;51.100;6.516;2023-04-01T08:50:27;2.17;;;2.00;;
29958;SDS011;16815;51.100;6.516;2023-04-01T08:55:29;5.07;;;1.90;;
29958;SDS011;16815;51.100;6.516;2023-04-01T08:58:07;1.83;;;1.73;;
29958;SDS011;16815;51.100;6.516;2023-04-01T09:00:46;3.27;;;2.07;;
29958;SDS011;16815;51.100;6.516;2023-04-01T09:08:48;2.30;;;2.10;;
29958;SDS011;16815;51.100;6.516;2023-04-01T09:14:23;2.37;;;2.20;;
29958;SDS011;16815;51.100;6.516;2023-04-01T09:27:27;2.70;;;2.50;;
29958;SDS011;16815;51.100;6.516;2023-04-01T09:29:59;3.07;;;2.77;;
29958;SDS011;16815;51.100;6.516;2023-04-01T09:35:30;3.10;;;2.90;;
29958;SDS011;16815;51.100;6.516;2023-04-01T09:38:22;3.20;;;3.00;;
29958;SDS011;16815;51.100;6.516;2023-04-01T09:43:39;2.50;;;2.40;;
29958;SDS011;16815;51.100;6.516;2023-04-01T09:46:20;2.93;;;2.73;;
29958;SDS011;16815;51.100;6.516;2023-04-01T09:54:19;2.20;;;2.10;;
29958;SDS011;16815;51.100;6.516;2023-04-01T10:04:41;2.90;;;2.70;;
29958;SDS011;16815;51.100;6.516;2023-04-01T10:14:53;2.53;;;2.33;;
29958;SDS011;16815;51.100;6.516;2023-04-01T10:20:09;2.20;;;2.10;;
29958;SDS011;16815;51.100;6.516;2023-04-01T10:25:17;3.07;;;2.80;;
29958;SDS011;16815;51.100;6.516;2023-04-01T10:30:33;3.10;;;2.90;;
29958;SDS011;16815;51.100;6.516;2023-04-01T10:41:28;3.40;;;2.77;;
29958;SDS011;16815;51.100;6.516;2023-04-01T10:56:53;3.13;;;2.93;;
29958;SDS011;16815;51.100;6.516;2023-04-01T11:02:16;3.43;;;3.03;;
29958;SDS011;16815;51.100;6.516;2023-04-01T11:07:37;3.90;;;3.50;;
29958;SDS011;16815;51.100;6.516;2023-04-01T11:13:08;4.23;;;3.87;;
29958;SDS011;16815;51.100;6.516;2023-04-01T11:18:33;4.33;;;4.00;;
29958;SDS011;16815;51.100;6.516;2023-04-01T11:26:26;3.43;;;3.23;;
29958;SDS011;16815;51.100;6.516;2023-04-01T11:29:03;3.20;;;3.00;;
29958;SDS011;16815;51.100;6.516;2023-04-01T11:34:17;3.50;;;3.30;;
29958;SDS011;16815;51.100;6.516;2023-04-01T11:39:24;3.20;;;3.00;;
29958;SDS011;16815;51.100;6.516;2023-04-01T11:44:22;3.33;;;3.13;;
29958;SDS011;16815;51.100;6.516;2023-04-01T11:50:16;3.13;;;2.93;;
29958;SDS011;16815;51.100;6.516;2023-04-01T12:00:10;3.47;;;3.17;;
29958;SDS011;16815;51.100;6.516;2023-04-01T12:08:13;3.00;;;2.80;;
29958;SDS011;16815;51.100;6.516;2023-04-01T12:13:31;2.93;;;2.73;;
29958;SDS011;16815;51.100;6.516;2023-04-01T12:16:03;3.13;;;2.90;;
29958;SDS011;16815;51.100;6.516;2023-04-01T12:21:09;3.63;;;3.33;;
29958;SDS011;16815;51.100;6.516;2023-04-01T12:34:11;3.10;;;2.90;;
29958;SDS011;16815;51.100;6.516;2023-04-01T12:36:45;3.00;;;2.80;;
29958;SDS011;16815;51.100;6.516;2023-04-01T12:39:18;3.10;;;2.90;;
29958;SDS011;16815;51.100;6.516;2023-04-01T12:42:04;2.73;;;2.63;;
29958;SDS011;16815;51.100;6.516;2023-04-01T12:47:05;3.53;;;3.07;;
29958;SDS011;16815;51.100;6.516;2023-04-01T12:52:03;3.67;;;3.03;;
29958;SDS011;16815;51.100;6.516;2023-04-01T13:00:20;3.30;;;3.10;;
29958;SDS011;16815;51.100;6.516;2023-04-01T13:02:39;3.30;;;3.00;;
29958;SDS011;16815;51.100;6.516;2023-04-01T13:07:52;3.07;;;2.87;;
29958;SDS011;16815;51.100;6.516;2023-04-01T13:12:58;3.43;;;3.13;;
29958;SDS011;16815;51.100;6.516;2023-04-01T13:15:36;3.57;;;3.30;;
29958;SDS011;16815;51.100;6.516;2023-04-01T13:18:13;6.37;;;5.07;;
29958;SDS011;16815;51.100;6.516;2023-04-01T13:28:30;3.20;;;3.00;;
29958;SDS011;16815;51.100;6.516;2023-04-01T13:31:42;3.17;;;2.97;;
29958;SDS011;16815;51.100;6.516;2023-04-01T13:38:48;3.30;;;3.10;;
29958;SDS011;16815;51.100;6.516;2023-04-01T13:41:27;3.37;;;3.13;;
29958;SDS011;16815;51.100;6.516;2023-04-01T13:43:59;3.20;;;3.00;;
29958;SDS011;16815;51.100;6.516;2023-04-01T13:54:58;3.73;;;3.40;;
29958;SDS011;16815;51.100;6.516;2023-04-01T14:13:00;3.30;;;3.00;;
29958;SDS011;16815;51.100;6.516;2023-04-01T14:23:42;4.37;;;3.97;;
29958;SDS011;16815;51.100;6.516;2023-04-01T14:28:55;4.17;;;3.87;;
29958;SDS011;16815;51.100;6.516;2023-04-01T14:31:38;4.37;;;4.00;;
29958;SDS011;16815;51.100;6.516;2023-04-01T14:34:15;4.70;;;4.30;;
29958;SDS011;16815;51.100;6.516;2023-04-01T14:39:38;4.30;;;4.00;;
29958;SDS011;16815;51.100;6.516;2023-04-01T14:49:44;4.30;;;4.00;;
29958;SDS011;16815;51.100;6.516;2023-04-01T14:52:16;4.10;;;3.80;;
29958;SDS011;16815;51.100;6.516;2023-04-01T14:54:47;4.50;;;4.10;;
29958;SDS011;16815;51.100;6.516;2023-04-01T14:57:15;4.13;;;3.83;;
29958;SDS011;16815;51.100;6.516;2023-04-01T14:59:48;4.47;;;3.90;;
29958;SDS011;16815;51.100;6.516;2023-04-01T15:02:26;4.50;;;4.10;;
29958;SDS011;16815;51.100;6.516;2023-04-01T15:07:48;5.00;;;4.37;;
29958;SDS011;16815;51.100;6.516;2023-04-01T15:12:54;4.33;;;3.97;;
29958;SDS011;16815;51.100;6.516;2023-04-01T15:18:14;4.40;;;4.00;;
29958;SDS011;16815;51.100;6.516;2023-04-01T15:20:48;4.60;;;4.20;;
29958;SDS011;16815;51.100;6.516;2023-04-01T15:23:22;4.30;;;3.90;;
29958;SDS011;16815;51.100;6.516;2023-04-01T15:28:44;4.20;;;3.83;;
29958;SDS011;16815;51.100;6.516;2023-04-01T15:33:47;4.50;;;4.10;;
29958;SDS011;16815;51.100;6.516;2023-04-01T15:39:17;4.97;;;4.17;;
29958;SDS011;16815;51.100;6.516;2023-04-01T15:42:10;3.93;;;3.63;;
29958;SDS011;16815;51.100;6.516;2023-04-01T15:52:42;3.33;;;3.07;;
29958;SDS011;16815;51.100;6.516;2023-04-01T15:55:15;4.60;;;4.20;;
29958;SDS011;16815;51.100;6.516;2023-04-01T15:57:47;3.33;;;3.13;;
29958;SDS011;16815;51.100;6.516;2023-04-01T16:00:30;3.63;;;3.33;;
29958;SDS011;16815;51.100;6.516;2023-04-01T16:10:33;3.50;;;3.30;;
29958;SDS011;16815;51.100;6.516;2023-04-01T16:13:14;4.90;;;4.20;;
29958;SDS011;16815;51.100;6.516;2023-04-01T16:15:50;4.13;;;3.80;;
29958;SDS011;16815;51.100;6.516;2023-04-01T16:18:39;3.80;;;3.50;;
29958;SDS011;16815;51.100;6.516;2023-04-01T16:21:13;3.30;;;3.07;;
29958;SDS011;16815;51.100;6.516;2023-04-01T16:23:42;3.30;;;3.03;;
29958;SDS011;16815;51.100;6.516;2023-04-01T16:26:19;3.47;;;3.27;;
29958;SDS011;16815;51.100;6.516;2023-04-01T16:28:53;2.93;;;2.73;;
29958;SDS011;16815;51.100;6.516;2023-04-01T16:31:43;3.07;;;2.87;;
29958;SDS011;16815;51.100;6.516;2023-04-01T16:34:14;3.10;;;2.90;;
29958;SDS011;16815;51.100;6.516;2023-04-01T16:36:44;3.20;;;2.90;;
29958;SDS011;16815;51.100;6.516;2023-04-01T16:41:42;2.87;;;2.57;;
29958;SDS011;16815;51.100;6.516;2023-04-01T16:44:22;3.00;;;2.70;;
29958;SDS011;16815;51.100;6.516;2023-04-01T16:46:56;3.17;;;2.93;;
29958;SDS011;16815;51.100;6.516;2023-04-01T16:49:24;3.03;;;2.83;;
29958;SDS011;16815;51.100;6.516;2023-04-01T16:57:02;2.53;;;2.43;;
29958;SDS011;16815;51.100;6.516;2023-04-01T16:59:33;2.70;;;2.50;;
29958;SDS011;16815;51.100;6.516;2023-04-01T17:06:58;2.37;;;2.27;;
29958;SDS011;16815;51.100;6.516;2023-04-01T17:09:38;2.70;;;2.60;;
29958;SDS011;16815;51.100;6.516;2023-04-01T17:12:12;2.53;;;2.40;;
29958;SDS011;16815;51.100;6.516;2023-04-01T17:17:13;3.43;;;3.17;;
29958;SDS011;16815;51.100;6.516;2023-04-01T17:22:43;2.83;;;2.67;;
29958;SDS011;16815;51.100;6.516;2023-04-01T17:30:26;2.33;;;2.23;;
29958;SDS011;16815;51.100;6.516;2023-04-01T17:32:57;2.90;;;2.33;;
29958;SDS011;16815;51.100;6.516;2023-04-01T17:40:45;2.40;;;2.20;;
29958;SDS011;16815;51.100;6.516;2023-04-01T17:43:29;2.50;;;2.30;;
29958;SDS011;16815;51.100;6.516;2023-04-01T17:45:57;2.80;;;2.60;;
29958;SDS011;16815;51.100;6.516;2023-04-01T17:48:24;2.53;;;2.33;;
29958;SDS011;16815;51.100;6.516;2023-04-01T17:53:59;2.70;;;2.37;;
29958;SDS011;16815;51.100;6.516;2023-04-01T17:56:34;2.37;;;2.17;;
29958;SDS011;16815;51.100;6.516;2023-04-01T18:01:49;2.80;;;2.60;;
29958;SDS011;16815;51.100;6.516;2023-04-01T18:04:30;2.50;;;2.30;;
29958;SDS011;16815;51.100;6.516;2023-04-01T18:09:40;2.47;;;2.33;;
29958;SDS011;16815;51.100;6.516;2023-04-01T18:21:29;3.67;;;3.37;;
29958;SDS011;16815;51.100;6.516;2023-04-01T18:35:57;5.27;;;4.87;;
29958;SDS011;16815;51.100;6.516;2023-04-01T18:57:20;4.73;;;4.33;;
29958;SDS011;16815;51.100;6.516;2023-04-01T19:00:26;5.00;;;4.43;;
29958;SDS011;16815;51.100;6.516;2023-04-01T19:05:49;5.37;;;4.87;;
29958;SDS011;16815;51.100;6.516;2023-04-01T19:11:20;6.33;;;5.23;;
29958;SDS011;16815;51.100;6.516;2023-04-01T19:14:10;5.30;;;4.90;;
29958;SDS011;16815;51.100;6.516;2023-04-01T19:16:43;6.40;;;5.83;;
29958;SDS011;16815;51.100;6.516;2023-04-01T20:05:42;5.50;;;5.00;;
29958;SDS011;16815;51.100;6.516;2023-04-01T21:40:37;11.10;;;10.10;;
29958;SDS011;16815;51.100;6.516;2023-04-01T21:43:09;11.47;;;10.40;;
29958;SDS011;16815;51.100;6.516;2023-04-01T21:45:41;9.43;;;8.57;;
29958;SDS011;16815;51.100;6.516;2023-04-01T21:50:47;8.23;;;7.53;;
29958;SDS011;16815;51.100;6.516;2023-04-01T21:56:06;8.63;;;7.73;;
29958;SDS011;16815;51.100;6.516;2023-04-01T22:01:15;11.20;;;10.30;;
29958;SDS011;16815;51.100;6.516;2023-04-01T22:06:44;10.13;;;9.03;;
29958;SDS011;16815;51.100;6.516;2023-04-01T22:09:17;10.17;;;9.27;;
29958;SDS011;16815;51.100;6.516;2023-04-01T22:14:33;9.00;;;8.13;;
29958;SDS011;16815;51.100;6.516;2023-04-01T22:25:46;6.43;;;5.80;;
29958;SDS011;16815;51.100;6.516;2023-04-01T22:28:18;7.70;;;6.33;;
29958;SDS011;16815;51.100;6.516;2023-04-01T22:30:48;7.10;;;6.40;;
29958;SDS011;16815;51.100;6.516;2023-04-01T22:33:30;7.63;;;7.00;;
29958;SDS011;16815;51.100;6.516;2023-04-01T22:41:14;6.40;;;5.80;;
29958;SDS011;16815;51.100;6.516;2023-04-01T22:43:42;5.93;;;5.43;;
29958;SDS011;16815;51.100;6.516;2023-04-01T22:48:45;5.97;;;5.47;;
29958;SDS011;16815;51.100;6.516;2023-04-01T22:51:15;5.60;;;5.10;;
29958;SDS011;16815;51.100;6.516;2023-04-01T22:54:02;6.60;;;5.97;;
29958;SDS011;16815;51.100;6.516;2023-04-01T22:56:33;6.57;;;5.93;;
29958;SDS011;16815;51.100;6.516;2023-04-01T23:01:36;6.80;;;6.20;;
29958;SDS011;16815;51.100;6.516;2023-04-01T23:04:04;8.03;;;7.33;;
29958;SDS011;16815;51.100;6.516;2023-04-01T23:06:33;7.50;;;6.90;;
29958;SDS011;16815;51.100;6.516;2023-04-01T23:09:08;6.87;;;6.37;;
29958;SDS011;16815;51.100;6.516;2023-04-01T23:11:37;7.63;;;6.93;;
29958;SDS011;16815;51.100;6.516;2023-04-01T23:14:14;6.13;;;5.70;;
29958;SDS011;16815;51.100;6.516;2023-04-01T23:16:57;5.10;;;4.70;;
29958;SDS011;16815;51.100;6.516;2023-04-01T23:27:19;9.53;;;8.10;;
29958;SDS011;16815;51.100;6.516;2023-04-01T23:29:45;8.13;;;7.43;;
29958;SDS011;16815;51.100;6.516;2023-04-01T23:32:24;8.20;;;7.40;;
29958;SDS011;16815;51.100;6.516;2023-04-01T23:34:55;10.13;;;7.63;;
29958;SDS011;16815;51.100;6.516;2023-04-01T23:37:22;9.17;;;8.37;;
29958;SDS011;16815;51.100;6.516;2023-04-01T23:39:49;10.20;;;8.50;;
29958;SDS011;16815;51.100;6.516;2023-04-01T23:42:20;7.77;;;7.07;;
29958;SDS011;16815;51.100;6.516;2023-04-01T23:44:47;6.53;;;5.97;;
29958;SDS011;16815;51.100;6.516;2023-04-01T23:47:18;5.73;;;5.23;;
29958;SDS011;16815;51.100;6.516;2023-04-01T23:49:47;5.10;;;4.63;;
29958;SDS011;16815;51.100;6.516;2023-04-01T23:54:44;7.53;;;6.93;;
29958;SDS011;16815;51.100;6.516;2023-04-01T23:57:18;7.13;;;6.47;;
29958;SDS011;16815;51.100;6.516;2023-04-01T23:59:45;8.40;;;7.60;;
